Time;durP1;ratioP1;P1;durP2;ratioP2;P2;SDS_P1;SDS_P2;PMS_P1;PMS_P2;Temp;Humidity;BMP_temperature;BMP_pressure;BME280_temperature;BME280_humidity;BME280_pressure;Samples;Min_cycle;Max_cycle;Signal;HPM_P1;HPM_P2
2022/03/05 00:02:16;;;;;;;25.52;9.45;;;2.60;99.90;;;;;;6706557;88;20723;-78
2022/03/05 00:12:17;;;;;;;31.08;10.13;;;2.30;99.90;;;;;;6706242;88;20359;-78
2022/03/05 00:22:18;;;;;;;25.90;9.52;;;2.30;99.90;;;;;;6710136;88;20249;-78
2022/03/05 00:32:19;;;;;;;27.05;9.98;;;2.10;99.90;;;;;;6711212;88;20845;-78
2022/03/05 00:42:19;;;;;;;31.52;9.90;;;2.00;99.90;;;;;;6712276;88;20673;-77
2022/03/05 00:52:21;;;;;;;27.83;10.10;;;1.90;99.90;;;;;;6708762;88;20210;-78
2022/03/05 01:02:21;;;;;;;28.90;9.85;;;1.70;99.90;;;;;;6712930;88;20212;-78
2022/03/05 01:12:22;;;;;;;30.48;10.02;;;1.50;99.90;;;;;;6707757;88;20198;-78
2022/03/05 01:22:22;;;;;;;28.05;9.35;;;1.50;99.90;;;;;;6712474;88;20609;-78
2022/03/05 01:32:23;;;;;;;32.90;10.07;;;1.30;99.90;;;;;;6709503;88;20382;-77
2022/03/05 01:42:25;;;;;;;30.15;9.63;;;1.30;99.90;;;;;;6712834;88;20219;-78
2022/03/05 01:52:25;;;;;;;32.97;9.27;;;1.20;99.90;;;;;;6713141;88;20248;-78
2022/03/05 02:02:26;;;;;;;31.90;11.35;;;1.10;99.90;;;;;;6711659;88;20192;-78
2022/03/05 02:12:32;;;;;;;32.85;10.27;;;1.10;99.90;;;;;;6696205;88;20206;-78
2022/03/05 02:22:32;;;;;;;32.45;10.35;;;1.00;99.90;;;;;;6696324;88;20194;-78
2022/03/05 02:32:34;;;;;;;35.13;10.98;;;0.80;99.90;;;;;;6695645;88;20654;-78
2022/03/05 02:42:34;;;;;;;39.17;10.30;;;0.70;99.90;;;;;;6695724;88;20319;-78
2022/03/05 02:52:38;;;;;;;35.22;10.38;;;0.70;99.90;;;;;;6696348;88;20658;-78
2022/03/05 03:02:39;;;;;;;35.63;11.20;;;0.50;99.90;;;;;;6695206;88;20209;-78
2022/03/05 03:12:40;;;;;;;35.15;11.30;;;0.50;99.90;;;;;;6691631;88;20237;-78
2022/03/05 03:22:40;;;;;;;33.67;9.73;;;0.50;99.90;;;;;;6695892;88;20630;-78
2022/03/05 03:32:42;;;;;;;32.72;10.50;;;0.40;99.90;;;;;;6729069;88;20256;-78
2022/03/05 03:42:45;;;;;;;36.38;10.50;;;0.40;99.90;;;;;;6724966;88;20259;-78
2022/03/05 04:03:48;;;;;;;31.48;10.02;;;0.30;99.90;;;;;;6700680;88;20151;-83
2022/03/05 04:13:48;;;;;;;33.88;10.07;;;0.20;99.90;;;;;;6702024;88;20247;-81
2022/03/05 04:23:49;;;;;;;34.50;11.10;;;0.10;99.90;;;;;;6701708;88;20758;-82
2022/03/05 04:33:49;;;;;;;38.97;11.00;;;0.10;99.90;;;;;;6701645;88;20167;-82
2022/03/05 04:43:50;;;;;;;36.88;10.70;;;0.00;99.90;;;;;;6701548;88;20163;-82
2022/03/05 04:53:51;;;;;;;35.05;9.77;;;0.00;99.90;;;;;;6701558;88;20499;-83
2022/03/05 05:03:51;;;;;;;32.70;10.60;;;0.10;99.90;;;;;;6682411;89;20951;-81
2022/03/05 05:13:52;;;;;;;32.75;10.13;;;0.10;99.90;;;;;;6682201;89;20194;-83
2022/03/05 05:23:52;;;;;;;35.20;10.68;;;0.00;99.90;;;;;;6681936;89;20172;-84
2022/03/05 05:33:53;;;;;;;35.10;10.00;;;0.00;99.90;;;;;;6672930;88;20282;-83
2022/03/05 05:43:53;;;;;;;31.95;9.18;;;0.10;99.90;;;;;;6700823;88;20773;-81
2022/03/05 05:53:55;;;;;;;37.17;10.75;;;0.00;99.90;;;;;;6700828;88;20155;-82
2022/03/05 06:03:56;;;;;;;34.00;10.25;;;0.00;99.90;;;;;;6681487;89;20188;-82
2022/03/05 06:13:57;;;;;;;35.28;10.77;;;0.00;99.90;;;;;;6648241;89;20757;-82
2022/03/05 06:23:57;;;;;;;37.83;10.38;;;-0.10;99.90;;;;;;6647945;89;20521;-83
2022/03/05 06:33:58;;;;;;;42.75;10.80;;;-0.10;99.90;;;;;;6643964;89;20169;-81
2022/03/05 06:43:58;;;;;;;41.85;8.80;;;-0.10;99.90;;;;;;6673926;89;20936;-82
2022/03/05 06:53:59;;;;;;;38.30;10.02;;;-0.10;99.90;;;;;;6664116;89;20168;-82
2022/03/05 07:03:59;;;;;;;28.60;9.02;;;0.00;99.90;;;;;;6677125;89;20182;-83
2022/03/05 07:14:00;;;;;;;29.45;8.63;;;0.20;99.90;;;;;;6680890;89;20190;-82
2022/03/05 07:24:02;;;;;;;27.80;8.90;;;0.40;99.90;;;;;;6680915;89;20171;-82
2022/03/05 07:34:03;;;;;;;28.67;8.80;;;0.70;99.90;;;;;;6694020;88;20999;-82
2022/03/05 07:44:06;;;;;;;28.80;9.98;;;1.00;99.90;;;;;;6697376;88;20167;-82
2022/03/05 07:54:07;;;;;;;29.25;9.32;;;1.30;99.90;;;;;;6699016;88;20162;-82
2022/03/05 08:04:08;;;;;;;29.42;9.50;;;1.70;99.90;;;;;;6699296;88;20188;-81
2022/03/05 08:14:08;;;;;;;31.58;10.00;;;2.30;99.90;;;;;;6696846;88;20268;-79
2022/03/05 08:24:09;;;;;;;25.50;8.55;;;3.10;99.90;;;;;;6690171;89;20216;-80
2022/03/05 08:34:09;;;;;;;30.98;9.55;;;3.50;99.90;;;;;;6689838;89;20195;-81
2022/03/05 08:44:10;;;;;;;27.13;9.07;;;3.40;99.90;;;;;;6686035;89;20589;-83
2022/03/05 08:54:10;;;;;;;26.30;9.15;;;3.80;99.90;;;;;;6689145;89;20191;-80
2022/03/05 09:04:12;;;;;;;26.50;9.88;;;3.40;99.90;;;;;;6691241;89;20300;-80
2022/03/05 09:14:12;;;;;;;25.42;8.73;;;3.80;99.90;;;;;;6691706;89;20206;-80
2022/03/05 09:24:13;;;;;;;18.37;7.28;;;4.10;99.90;;;;;;6689682;89;20199;-80
2022/03/05 09:34:13;;;;;;;23.90;9.48;;;4.20;99.90;;;;;;6689258;89;20670;-81
2022/03/05 09:54:17;;;;;;;21.35;8.70;;;5.40;99.90;;;;;;6654388;89;20208;-81
2022/03/05 10:04:22;;;;;;;25.05;9.98;;;5.20;99.90;;;;;;6651381;89;20248;-79
2022/03/05 10:14:23;;;;;;;23.08;9.90;;;6.10;99.90;;;;;;6649521;89;20202;-78
2022/03/05 10:24:39;;;;;;;14.85;6.07;;;6.90;99.90;;;;;;6650251;89;20180;-79
2022/03/05 10:34:42;;;;;;;18.52;8.57;;;6.50;98.20;;;;;;6646040;89;20211;-78
2022/03/05 10:44:43;;;;;;;20.15;8.55;;;7.10;97.60;;;;;;6651056;89;20244;-80
2022/03/05 10:54:44;;;;;;;20.77;7.77;;;7.80;95.80;;;;;;6643993;89;20758;-79
2022/03/05 11:04:46;;;;;;;16.52;8.00;;;8.10;93.00;;;;;;6644836;88;20580;-79
2022/03/05 11:14:48;;;;;;;16.67;7.37;;;8.30;91.70;;;;;;6644216;89;20338;-78
2022/03/05 11:24:49;;;;;;;12.15;6.18;;;8.10;90.00;;;;;;6643836;89;20364;-79
2022/03/05 11:34:52;;;;;;;13.90;6.28;;;9.00;85.00;;;;;;6640906;89;20670;-77
2022/03/05 11:44:52;;;;;;;13.02;6.07;;;9.60;81.00;;;;;;6643606;89;20239;-79
2022/03/05 11:55:15;;;;;;;13.30;5.55;;;9.70;76.60;;;;;;6642131;89;20326;-79
2022/03/05 12:05:37;;;;;;;10.95;5.47;;;10.50;73.20;;;;;;6645704;89;20707;-78
2022/03/05 12:15:43;;;;;;;10.73;4.80;;;11.30;70.30;;;;;;6640603;89;20355;-79
2022/03/05 12:25:47;;;;;;;11.83;5.43;;;11.70;65.40;;;;;;6644198;89;20358;-78
2022/03/05 12:35:48;;;;;;;11.27;5.12;;;11.10;66.10;;;;;;6643156;89;20185;-80
2022/03/05 12:45:50;;;;;;;12.77;4.75;;;11.40;63.90;;;;;;6641757;89;20204;-79
2022/03/05 12:55:56;;;;;;;10.30;5.18;;;13.00;61.30;;;;;;6652522;89;20176;-79
2022/03/05 13:05:57;;;;;;;12.68;6.15;;;14.10;59.40;;;;;;6653266;89;20250;-79
2022/03/05 13:16:01;;;;;;;13.48;6.35;;;13.80;58.90;;;;;;6652133;89;20251;-78
2022/03/05 13:26:02;;;;;;;12.20;6.47;;;13.50;59.00;;;;;;6648443;89;20200;-79
2022/03/05 13:36:29;;;;;;;13.90;6.75;;;13.60;57.40;;;;;;6653518;89;20221;-79
2022/03/05 13:46:31;;;;;;;14.87;6.45;;;13.80;58.10;;;;;;6653452;89;20247;-79
2022/03/05 13:56:47;;;;;;;12.88;6.95;;;12.70;57.70;;;;;;6652561;89;20221;-79
2022/03/05 14:07:00;;;;;;;13.05;6.85;;;14.20;57.00;;;;;;6650016;89;20239;-79
2022/03/05 14:17:01;;;;;;;12.65;6.72;;;14.10;56.30;;;;;;6653897;89;20211;-79
2022/03/05 14:27:13;;;;;;;17.20;7.10;;;14.10;56.70;;;;;;6650030;89;20185;-79
2022/03/05 14:37:14;;;;;;;13.43;6.40;;;13.80;56.30;;;;;;6654555;89;20179;-79
2022/03/05 14:47:14;;;;;;;11.40;6.03;;;12.70;56.30;;;;;;6649476;89;20628;-79
2022/03/05 14:57:18;;;;;;;10.65;5.82;;;13.50;53.40;;;;;;6652285;88;20270;-80
2022/03/05 15:07:19;;;;;;;8.88;5.32;;;13.30;53.80;;;;;;6654150;89;20195;-79
2022/03/05 15:17:20;;;;;;;11.23;5.57;;;12.70;54.80;;;;;;6646942;89;20232;-79
2022/03/05 15:27:22;;;;;;;9.65;5.30;;;12.70;55.60;;;;;;6643265;89;20720;-78
2022/03/05 15:37:23;;;;;;;12.65;5.75;;;12.50;55.00;;;;;;6641969;89;20649;-78
2022/03/05 15:57:27;;;;;;;10.38;4.80;;;11.50;55.60;;;;;;6643537;89;20217;-80
2022/03/05 16:07:27;;;;;;;10.63;4.95;;;10.90;57.50;;;;;;6644688;89;20226;-79
2022/03/05 16:17:28;;;;;;;10.00;4.45;;;10.80;58.00;;;;;;6645162;89;20228;-80
2022/03/05 16:27:28;;;;;;;12.67;5.70;;;10.60;57.80;;;;;;6643557;89;20956;-79
2022/03/05 16:37:29;;;;;;;11.15;4.45;;;10.40;59.20;;;;;;6644451;89;20626;-79
2022/03/05 16:47:29;;;;;;;9.18;4.82;;;10.30;58.40;;;;;;6640386;89;21001;-80
2022/03/05 16:57:30;;;;;;;9.98;4.53;;;10.10;58.30;;;;;;6656831;89;20257;-80
2022/03/05 17:07:31;;;;;;;13.00;4.78;;;9.70;58.50;;;;;;6659587;89;20196;-80
2022/03/05 17:17:31;;;;;;;13.27;6.07;;;9.10;60.40;;;;;;6660550;89;20252;-81
2022/03/05 17:27:32;;;;;;;13.90;6.40;;;8.60;64.80;;;;;;6657129;89;20195;-79
2022/03/05 17:37:33;;;;;;;14.02;6.55;;;8.30;66.10;;;;;;6660467;89;20219;-80
2022/03/05 17:47:34;;;;;;;12.77;5.82;;;7.90;67.00;;;;;;6658263;89;20188;-80
2022/03/05 17:57:34;;;;;;;13.48;6.00;;;7.60;68.00;;;;;;6663713;88;20291;-80
2022/03/05 18:07:35;;;;;;;18.95;7.60;;;7.30;69.60;;;;;;6660296;89;20678;-79
2022/03/05 18:17:36;;;;;;;13.62;6.57;;;7.00;69.60;;;;;;6656395;89;20204;-80
2022/03/05 18:27:37;;;;;;;17.40;7.53;;;6.80;70.00;;;;;;6640278;89;20777;-79
2022/03/05 18:37:37;;;;;;;17.77;7.07;;;6.50;70.80;;;;;;6640380;89;20367;-81
2022/03/05 18:47:40;;;;;;;15.83;6.43;;;6.20;71.90;;;;;;6643987;88;20243;-83
2022/03/05 18:57:41;;;;;;;12.10;6.12;;;6.20;72.10;;;;;;6644314;89;20528;-79
2022/03/05 19:07:43;;;;;;;14.05;6.57;;;5.90;72.40;;;;;;6642159;88;20192;-79
2022/03/05 19:17:44;;;;;;;12.85;5.95;;;5.60;73.30;;;;;;6643867;89;20208;-80
2022/03/05 19:27:45;;;;;;;13.30;6.60;;;5.30;74.60;;;;;;6654903;89;20696;-79
2022/03/05 19:37:58;;;;;;;17.00;7.75;;;5.20;75.20;;;;;;6636390;89;20193;-80
2022/03/05 19:48:00;;;;;;;15.75;7.15;;;5.00;76.40;;;;;;6621338;90;20589;-79
2022/03/05 19:58:01;;;;;;;18.40;8.32;;;4.70;77.50;;;;;;6621377;90;20198;-80
2022/03/05 20:08:02;;;;;;;19.70;8.57;;;4.50;78.60;;;;;;6624452;89;20791;-80
2022/03/05 20:18:03;;;;;;;15.20;7.25;;;4.30;79.30;;;;;;6640621;89;20167;-81
2022/03/05 20:28:03;;;;;;;16.62;7.15;;;4.30;79.30;;;;;;6640701;89;20197;-78
2022/03/05 20:38:04;;;;;;;18.58;7.12;;;4.20;79.70;;;;;;6639727;89;20938;-79
2022/03/05 20:48:06;;;;;;;16.48;7.30;;;4.10;79.90;;;;;;6606338;89;20341;-81
2022/03/05 20:58:07;;;;;;;14.60;7.03;;;4.00;80.10;;;;;;6608381;89;20210;-78
2022/03/05 21:08:08;;;;;;;18.65;6.20;;;3.90;80.70;;;;;;6637887;89;20895;-79
2022/03/05 21:18:08;;;;;;;15.93;7.07;;;3.80;81.40;;;;;;6642998;89;20733;-78
2022/03/05 21:28:09;;;;;;;12.40;5.80;;;3.60;82.00;;;;;;6643392;89;20168;-79
2022/03/05 21:38:09;;;;;;;11.70;5.75;;;3.50;82.60;;;;;;6639604;88;20166;-79
2022/03/05 21:48:10;;;;;;;12.63;6.32;;;3.40;83.00;;;;;;6617603;90;20334;-80
2022/03/05 21:58:11;;;;;;;13.55;5.82;;;3.30;83.40;;;;;;6626200;89;20213;-79
2022/03/05 22:08:11;;;;;;;13.43;6.53;;;3.30;84.60;;;;;;6623931;89;20197;-79
2022/03/05 22:18:12;;;;;;;13.45;6.28;;;3.30;84.50;;;;;;6628821;89;20205;-79
2022/03/05 22:28:12;;;;;;;14.75;6.60;;;3.20;85.00;;;;;;6629057;89;20219;-79
2022/03/05 22:38:13;;;;;;;13.82;6.35;;;3.10;86.70;;;;;;6629135;89;20211;-79
2022/03/05 22:48:13;;;;;;;13.60;6.18;;;2.90;87.90;;;;;;6628537;89;20259;-79
2022/03/05 22:58:14;;;;;;;12.93;6.18;;;2.60;90.10;;;;;;6627370;89;20204;-80
2022/03/05 23:18:35;;;;;;;18.10;7.03;;;1.90;94.50;;;;;;6627595;89;20177;-79
2022/03/05 23:28:36;;;;;;;18.40;7.62;;;1.70;98.20;;;;;;6627671;89;20224;-79
2022/03/05 23:38:36;;;;;;;16.87;7.12;;;1.50;99.90;;;;;;6628340;89;20736;-80
2022/03/05 23:48:37;;;;;;;17.10;7.55;;;1.30;99.90;;;;;;6629073;89;20353;-80
2022/03/05 23:58:37;;;;;;;15.88;7.45;;;1.50;99.90;;;;;;6624993;89;20228;-79
